sensor_id;sensor_type;location;lat;lon;timestamp;temperature;humidity
66610;DHT22;53468;48.276;14.416;2023-02-04T00:02:38;5.20;99.90
66610;DHT22;53468;48.276;14.416;2023-02-04T00:07:41;5.20;99.90
66610;DHT22;53468;48.276;14.416;2023-02-04T00:12:43;5.10;99.90
66610;DHT22;53468;48.276;14.416;2023-02-04T00:17:46;5.10;99.90
66610;DHT22;53468;48.276;14.416;2023-02-04T00:22:48;5.10;99.90
66610;DHT22;53468;48.276;14.416;2023-02-04T00:27:51;5.10;99.90
66610;DHT22;53468;48.276;14.416;2023-02-04T00:32:54;5.20;99.90
66610;DHT22;53468;48.276;14.416;2023-02-04T00:37:56;5.10;99.90
66610;DHT22;53468;48.276;14.416;2023-02-04T00:42:59;5.10;99.90
66610;DHT22;53468;48.276;14.416;2023-02-04T00:48:03;5.10;99.90
66610;DHT22;53468;48.276;14.416;2023-02-04T00:53:05;5.20;99.90
66610;DHT22;53468;48.276;14.416;2023-02-04T00:58:07;5.10;99.90
66610;DHT22;53468;48.276;14.416;2023-02-04T01:03:11;5.20;99.90
66610;DHT22;53468;48.276;14.416;2023-02-04T01:08:13;5.30;99.90
66610;DHT22;53468;48.276;14.416;2023-02-04T01:13:15;5.30;99.90
66610;DHT22;53468;48.276;14.416;2023-02-04T01:18:19;5.40;99.90
66610;DHT22;53468;48.276;14.416;2023-02-04T01:23:21;5.40;99.90
66610;DHT22;53468;48.276;14.416;2023-02-04T01:28:23;5.50;99.90
66610;DHT22;53468;48.276;14.416;2023-02-04T01:33:26;5.50;99.90
66610;DHT22;53468;48.276;14.416;2023-02-04T01:38:29;5.60;99.90
66610;DHT22;53468;48.276;14.416;2023-02-04T01:43:32;5.60;99.90
66610;DHT22;53468;48.276;14.416;2023-02-04T01:48:36;5.60;99.90
66610;DHT22;53468;48.276;14.416;2023-02-04T01:53:38;5.60;99.90
66610;DHT22;53468;48.276;14.416;2023-02-04T01:58:41;5.60;99.90
66610;DHT22;53468;48.276;14.416;2023-02-04T02:03:45;5.60;99.90
66610;DHT22;53468;48.276;14.416;2023-02-04T02:08:47;5.50;99.90
66610;DHT22;53468;48.276;14.416;2023-02-04T02:13:49;5.50;99.90
66610;DHT22;53468;48.276;14.416;2023-02-04T02:18:53;5.50;99.90
66610;DHT22;53468;48.276;14.416;2023-02-04T02:23:59;5.60;99.90
66610;DHT22;53468;48.276;14.416;2023-02-04T02:29:01;5.50;99.90
66610;DHT22;53468;48.276;14.416;2023-02-04T02:34:03;5.50;99.90
66610;DHT22;53468;48.276;14.416;2023-02-04T02:39:07;5.50;99.90
66610;DHT22;53468;48.276;14.416;2023-02-04T02:44:10;5.60;99.90
66610;DHT22;53468;48.276;14.416;2023-02-04T02:49:15;5.60;99.90
66610;DHT22;53468;48.276;14.416;2023-02-04T02:54:22;5.50;99.90
66610;DHT22;53468;48.276;14.416;2023-02-04T02:59:25;5.50;99.90
66610;DHT22;53468;48.276;14.416;2023-02-04T03:04:29;5.50;99.90
66610;DHT22;53468;48.276;14.416;2023-02-04T03:09:35;5.50;99.90
66610;DHT22;53468;48.276;14.416;2023-02-04T03:14:37;5.50;99.90
66610;DHT22;53468;48.276;14.416;2023-02-04T03:19:39;5.50;99.90
66610;DHT22;53468;48.276;14.416;2023-02-04T03:24:43;5.50;99.90
66610;DHT22;53468;48.276;14.416;2023-02-04T03:29:45;5.50;99.90
66610;DHT22;53468;48.276;14.416;2023-02-04T03:34:47;5.50;99.90
66610;DHT22;53468;48.276;14.416;2023-02-04T03:39:51;5.50;99.90
66610;DHT22;53468;48.276;14.416;2023-02-04T03:44:53;5.40;99.90
66610;DHT22;53468;48.276;14.416;2023-02-04T03:49:55;5.30;99.90
66610;DHT22;53468;48.276;14.416;2023-02-04T03:54:59;5.30;99.90
66610;DHT22;53468;48.276;14.416;2023-02-04T04:00:01;5.20;99.90
66610;DHT22;53468;48.276;14.416;2023-02-04T04:05:04;5.20;99.90
66610;DHT22;53468;48.276;14.416;2023-02-04T04:10:08;5.10;99.90
66610;DHT22;53468;48.276;14.416;2023-02-04T04:15:10;5.10;99.90
66610;DHT22;53468;48.276;14.416;2023-02-04T04:20:12;5.00;99.90
66610;DHT22;53468;48.276;14.416;2023-02-04T04:25:16;5.00;99.90
66610;DHT22;53468;48.276;14.416;2023-02-04T04:30:18;4.90;99.90
66610;DHT22;53468;48.276;14.416;2023-02-04T04:35:20;5.00;99.90
66610;DHT22;53468;48.276;14.416;2023-02-04T04:40:24;5.00;99.90
66610;DHT22;53468;48.276;14.416;2023-02-04T04:45:26;5.00;99.90
66610;DHT22;53468;48.276;14.416;2023-02-04T04:50:28;5.00;99.90
66610;DHT22;53468;48.276;14.416;2023-02-04T04:55:32;5.00;99.90
66610;DHT22;53468;48.276;14.416;2023-02-04T05:00:34;5.00;99.90
66610;DHT22;53468;48.276;14.416;2023-02-04T05:05:36;5.00;99.90
66610;DHT22;53468;48.276;14.416;2023-02-04T05:10:42;5.00;99.90
66610;DHT22;53468;48.276;14.416;2023-02-04T05:15:44;5.00;99.90
66610;DHT22;53468;48.276;14.416;2023-02-04T05:20:46;4.90;99.90
66610;DHT22;53468;48.276;14.416;2023-02-04T05:25:50;4.90;99.90
66610;DHT22;53468;48.276;14.416;2023-02-04T05:30:52;4.90;99.90
66610;DHT22;53468;48.276;14.416;2023-02-04T05:35:54;4.80;99.90
66610;DHT22;53468;48.276;14.416;2023-02-04T05:40:58;4.40;99.90
66610;DHT22;53468;48.276;14.416;2023-02-04T05:46:00;3.80;99.90
66610;DHT22;53468;48.276;14.416;2023-02-04T05:51:02;3.50;99.90
66610;DHT22;53468;48.276;14.416;2023-02-04T05:56:06;3.50;99.90
66610;DHT22;53468;48.276;14.416;2023-02-04T06:01:08;3.50;99.90
66610;DHT22;53468;48.276;14.416;2023-02-04T06:06:10;3.50;99.90
66610;DHT22;53468;48.276;14.416;2023-02-04T06:11:14;3.60;99.90
66610;DHT22;53468;48.276;14.416;2023-02-04T06:16:16;3.60;99.90
66610;DHT22;53468;48.276;14.416;2023-02-04T06:21:18;3.60;99.90
66610;DHT22;53468;48.276;14.416;2023-02-04T06:26:21;3.50;99.90
66610;DHT22;53468;48.276;14.416;2023-02-04T06:31:23;3.40;99.90
66610;DHT22;53468;48.276;14.416;2023-02-04T06:36:25;3.20;99.90
66610;DHT22;53468;48.276;14.416;2023-02-04T06:41:29;3.10;99.90
66610;DHT22;53468;48.276;14.416;2023-02-04T06:46:32;3.00;99.90
66610;DHT22;53468;48.276;14.416;2023-02-04T06:51:34;2.90;99.90
66610;DHT22;53468;48.276;14.416;2023-02-04T06:56:37;2.80;99.90
66610;DHT22;53468;48.276;14.416;2023-02-04T07:01:39;2.90;99.90
66610;DHT22;53468;48.276;14.416;2023-02-04T07:06:41;2.90;99.90
66610;DHT22;53468;48.276;14.416;2023-02-04T07:11:45;2.90;99.90
66610;DHT22;53468;48.276;14.416;2023-02-04T07:16:47;3.10;99.90
66610;DHT22;53468;48.276;14.416;2023-02-04T07:21:49;3.20;99.90
66610;DHT22;53468;48.276;14.416;2023-02-04T07:26:55;3.30;99.90
66610;DHT22;53468;48.276;14.416;2023-02-04T07:31:57;3.40;99.90
66610;DHT22;53468;48.276;14.416;2023-02-04T07:37:00;3.50;99.90
66610;DHT22;53468;48.276;14.416;2023-02-04T07:42:04;3.70;99.90
66610;DHT22;53468;48.276;14.416;2023-02-04T07:47:06;3.80;99.90
66610;DHT22;53468;48.276;14.416;2023-02-04T07:52:08;3.90;99.90
66610;DHT22;53468;48.276;14.416;2023-02-04T07:57:13;4.00;99.90
66610;DHT22;53468;48.276;14.416;2023-02-04T08:02:15;4.10;99.90
66610;DHT22;53468;48.276;14.416;2023-02-04T08:07:17;4.30;99.90
66610;DHT22;53468;48.276;14.416;2023-02-04T08:12:21;4.10;99.90
66610;DHT22;53468;48.276;14.416;2023-02-04T08:17:24;4.10;99.90
66610;DHT22;53468;48.276;14.416;2023-02-04T08:22:26;4.00;99.90
66610;DHT22;53468;48.276;14.416;2023-02-04T08:27:30;3.90;99.90
66610;DHT22;53468;48.276;14.416;2023-02-04T08:32:33;3.70;99.90
66610;DHT22;53468;48.276;14.416;2023-02-04T08:37:35;3.50;99.90
66610;DHT22;53468;48.276;14.416;2023-02-04T08:42:39;3.60;99.90
66610;DHT22;53468;48.276;14.416;2023-02-04T08:47:41;3.60;99.90
66610;DHT22;53468;48.276;14.416;2023-02-04T08:52:43;3.70;99.90
66610;DHT22;53468;48.276;14.416;2023-02-04T08:57:47;3.90;99.90
66610;DHT22;53468;48.276;14.416;2023-02-04T09:02:49;3.90;99.90
66610;DHT22;53468;48.276;14.416;2023-02-04T09:07:51;4.60;99.90
66610;DHT22;53468;48.276;14.416;2023-02-04T09:12:55;4.40;99.90
66610;DHT22;53468;48.276;14.416;2023-02-04T09:17:57;4.10;99.90
66610;DHT22;53468;48.276;14.416;2023-02-04T09:23:04;4.00;99.90
66610;DHT22;53468;48.276;14.416;2023-02-04T09:28:10;3.70;99.90
66610;DHT22;53468;48.276;14.416;2023-02-04T09:33:14;3.90;99.90
66610;DHT22;53468;48.276;14.416;2023-02-04T09:38:17;4.30;99.90
66610;DHT22;53468;48.276;14.416;2023-02-04T09:43:22;4.50;99.90
66610;DHT22;53468;48.276;14.416;2023-02-04T09:48:26;4.70;99.90
66610;DHT22;53468;48.276;14.416;2023-02-04T09:53:30;4.80;99.90
66610;DHT22;53468;48.276;14.416;2023-02-04T09:58:33;5.00;99.90
66610;DHT22;53468;48.276;14.416;2023-02-04T10:03:36;5.00;99.90
66610;DHT22;53468;48.276;14.416;2023-02-04T10:08:47;5.10;99.90
66610;DHT22;53468;48.276;14.416;2023-02-04T10:13:52;5.10;99.90
66610;DHT22;53468;48.276;14.416;2023-02-04T10:18:56;5.20;99.90
66610;DHT22;53468;48.276;14.416;2023-02-04T10:24:25;5.00;99.90
66610;DHT22;53468;48.276;14.416;2023-02-04T10:29:31;5.00;99.90
66610;DHT22;53468;48.276;14.416;2023-02-04T10:34:36;5.10;99.90
66610;DHT22;53468;48.276;14.416;2023-02-04T10:39:41;5.10;99.90
66610;DHT22;53468;48.276;14.416;2023-02-04T10:44:47;4.90;99.90
66610;DHT22;53468;48.276;14.416;2023-02-04T10:49:54;4.90;99.90
66610;DHT22;53468;48.276;14.416;2023-02-04T10:54:56;4.90;99.90
66610;DHT22;53468;48.276;14.416;2023-02-04T11:00:03;4.80;99.90
66610;DHT22;53468;48.276;14.416;2023-02-04T11:05:11;4.50;99.90
66610;DHT22;53468;48.276;14.416;2023-02-04T11:10:15;4.40;99.90
66610;DHT22;53468;48.276;14.416;2023-02-04T11:15:45;4.20;99.90
66610;DHT22;53468;48.276;14.416;2023-02-04T11:20:49;4.10;99.90
66610;DHT22;53468;48.276;14.416;2023-02-04T11:26:05;4.00;99.90
66610;DHT22;53468;48.276;14.416;2023-02-04T11:31:24;4.00;99.90
66610;DHT22;53468;48.276;14.416;2023-02-04T11:36:27;4.00;99.90
66610;DHT22;53468;48.276;14.416;2023-02-04T11:41:31;4.20;99.90
66610;DHT22;53468;48.276;14.416;2023-02-04T11:46:34;4.30;99.90
66610;DHT22;53468;48.276;14.416;2023-02-04T11:51:37;4.40;99.90
66610;DHT22;53468;48.276;14.416;2023-02-04T11:56:39;4.60;99.90
66610;DHT22;53468;48.276;14.416;2023-02-04T12:01:42;4.80;99.90
66610;DHT22;53468;48.276;14.416;2023-02-04T12:06:56;4.90;99.90
66610;DHT22;53468;48.276;14.416;2023-02-04T12:12:28;5.00;99.90
66610;DHT22;53468;48.276;14.416;2023-02-04T12:17:31;5.10;99.90
66610;DHT22;53468;48.276;14.416;2023-02-04T12:22:33;5.10;99.90
66610;DHT22;53468;48.276;14.416;2023-02-04T12:27:35;5.00;99.90
66610;DHT22;53468;48.276;14.416;2023-02-04T12:32:39;4.90;99.90
66610;DHT22;53468;48.276;14.416;2023-02-04T12:37:42;4.70;99.90
66610;DHT22;53468;48.276;14.416;2023-02-04T12:42:44;4.70;99.90
66610;DHT22;53468;48.276;14.416;2023-02-04T12:47:48;4.60;99.90
66610;DHT22;53468;48.276;14.416;2023-02-04T12:52:51;4.60;99.90
66610;DHT22;53468;48.276;14.416;2023-02-04T12:57:53;4.70;99.90
66610;DHT22;53468;48.276;14.416;2023-02-04T13:02:57;4.70;99.90
66610;DHT22;53468;48.276;14.416;2023-02-04T13:07:59;4.70;99.90
66610;DHT22;53468;48.276;14.416;2023-02-04T13:13:02;4.70;99.90
66610;DHT22;53468;48.276;14.416;2023-02-04T13:18:05;4.70;99.90
66610;DHT22;53468;48.276;14.416;2023-02-04T13:23:08;4.70;99.90
66610;DHT22;53468;48.276;14.416;2023-02-04T13:28:10;4.70;99.60
66610;DHT22;53468;48.276;14.416;2023-02-04T13:33:13;4.60;99.90
66610;DHT22;53468;48.276;14.416;2023-02-04T13:38:16;4.60;99.90
66610;DHT22;53468;48.276;14.416;2023-02-04T13:43:18;4.60;99.40
66610;DHT22;53468;48.276;14.416;2023-02-04T13:48:22;4.60;99.90
66610;DHT22;53468;48.276;14.416;2023-02-04T13:53:24;4.50;99.90
66610;DHT22;53468;48.276;14.416;2023-02-04T13:58:30;4.40;99.90
66610;DHT22;53468;48.276;14.416;2023-02-04T14:03:34;4.40;99.90
66610;DHT22;53468;48.276;14.416;2023-02-04T14:08:36;4.40;99.90
66610;DHT22;53468;48.276;14.416;2023-02-04T14:13:38;4.30;99.90
66610;DHT22;53468;48.276;14.416;2023-02-04T14:18:41;4.30;99.90
66610;DHT22;53468;48.276;14.416;2023-02-04T14:23:44;4.20;99.40
66610;DHT22;53468;48.276;14.416;2023-02-04T14:28:46;4.10;99.90
66610;DHT22;53468;48.276;14.416;2023-02-04T14:33:50;4.10;99.90
66610;DHT22;53468;48.276;14.416;2023-02-04T14:38:52;4.00;99.90
66610;DHT22;53468;48.276;14.416;2023-02-04T14:43:54;3.80;99.90
66610;DHT22;53468;48.276;14.416;2023-02-04T14:48:58;3.70;99.90
66610;DHT22;53468;48.276;14.416;2023-02-04T14:54:00;3.80;99.90
66610;DHT22;53468;48.276;14.416;2023-02-04T14:59:03;3.80;99.90
66610;DHT22;53468;48.276;14.416;2023-02-04T15:04:07;3.80;99.90
66610;DHT22;53468;48.276;14.416;2023-02-04T15:09:10;3.80;99.90
66610;DHT22;53468;48.276;14.416;2023-02-04T15:14:12;3.70;99.90
66610;DHT22;53468;48.276;14.416;2023-02-04T15:19:16;3.60;99.90
66610;DHT22;53468;48.276;14.416;2023-02-04T15:24:19;3.50;99.90
66610;DHT22;53468;48.276;14.416;2023-02-04T15:29:22;3.40;99.90
66610;DHT22;53468;48.276;14.416;2023-02-04T15:34:25;3.30;99.90
66610;DHT22;53468;48.276;14.416;2023-02-04T15:39:28;3.20;99.90
66610;DHT22;53468;48.276;14.416;2023-02-04T15:44:30;3.20;99.90
66610;DHT22;53468;48.276;14.416;2023-02-04T15:49:34;3.20;99.90
66610;DHT22;53468;48.276;14.416;2023-02-04T15:54:36;3.20;99.90
66610;DHT22;53468;48.276;14.416;2023-02-04T15:59:39;3.10;99.90
66610;DHT22;53468;48.276;14.416;2023-02-04T16:04:43;3.00;99.90
66610;DHT22;53468;48.276;14.416;2023-02-04T16:09:47;3.00;99.90
66610;DHT22;53468;48.276;14.416;2023-02-04T16:14:49;2.80;99.90
66610;DHT22;53468;48.276;14.416;2023-02-04T16:19:53;2.70;99.90
66610;DHT22;53468;48.276;14.416;2023-02-04T16:24:55;2.60;99.90
66610;DHT22;53468;48.276;14.416;2023-02-04T16:30:04;2.50;99.90
66610;DHT22;53468;48.276;14.416;2023-02-04T16:35:07;2.40;99.90
66610;DHT22;53468;48.276;14.416;2023-02-04T16:40:11;2.30;99.90
66610;DHT22;53468;48.276;14.416;2023-02-04T16:45:13;2.20;99.90
66610;DHT22;53468;48.276;14.416;2023-02-04T16:50:17;2.20;99.90
66610;DHT22;53468;48.276;14.416;2023-02-04T16:55:21;2.10;99.90
66610;DHT22;53468;48.276;14.416;2023-02-04T17:00:26;2.10;99.90
66610;DHT22;53468;48.276;14.416;2023-02-04T17:05:30;1.90;99.90
66610;DHT22;53468;48.276;14.416;2023-02-04T17:10:33;1.90;99.90
66610;DHT22;53468;48.276;14.416;2023-02-04T17:15:53;1.80;99.90
66610;DHT22;53468;48.276;14.416;2023-02-04T17:21:02;1.70;99.90
66610;DHT22;53468;48.276;14.416;2023-02-04T17:26:04;1.70;99.90
66610;DHT22;53468;48.276;14.416;2023-02-04T17:31:06;1.60;99.90
66610;DHT22;53468;48.276;14.416;2023-02-04T17:36:11;1.60;99.90
66610;DHT22;53468;48.276;14.416;2023-02-04T17:41:14;1.50;99.90
66610;DHT22;53468;48.276;14.416;2023-02-04T17:46:17;1.50;99.90
66610;DHT22;53468;48.276;14.416;2023-02-04T17:51:22;1.40;99.90
66610;DHT22;53468;48.276;14.416;2023-02-04T17:56:24;1.40;99.90
66610;DHT22;53468;48.276;14.416;2023-02-04T18:01:26;1.30;99.90
66610;DHT22;53468;48.276;14.416;2023-02-04T18:06:30;1.30;99.90
66610;DHT22;53468;48.276;14.416;2023-02-04T18:11:36;1.20;99.90
66610;DHT22;53468;48.276;14.416;2023-02-04T18:16:39;1.10;99.90
66610;DHT22;53468;48.276;14.416;2023-02-04T18:21:43;1.10;99.90
66610;DHT22;53468;48.276;14.416;2023-02-04T18:26:47;1.00;99.90
66610;DHT22;53468;48.276;14.416;2023-02-04T18:31:51;0.80;99.90
66610;DHT22;53468;48.276;14.416;2023-02-04T18:36:55;0.80;99.90
66610;DHT22;53468;48.276;14.416;2023-02-04T18:41:57;0.70;99.90
66610;DHT22;53468;48.276;14.416;2023-02-04T18:47:01;0.60;99.90
66610;DHT22;53468;48.276;14.416;2023-02-04T18:52:14;0.50;99.90
66610;DHT22;53468;48.276;14.416;2023-02-04T18:57:23;0.30;99.90
66610;DHT22;53468;48.276;14.416;2023-02-04T19:02:35;0.20;99.90
66610;DHT22;53468;48.276;14.416;2023-02-04T19:07:40;0.20;99.90
66610;DHT22;53468;48.276;14.416;2023-02-04T19:12:42;0.00;99.90
66610;DHT22;53468;48.276;14.416;2023-02-04T19:17:44;0.00;99.90
66610;DHT22;53468;48.276;14.416;2023-02-04T19:22:49;-0.10;99.90
66610;DHT22;53468;48.276;14.416;2023-02-04T19:27:55;0.00;99.90
66610;DHT22;53468;48.276;14.416;2023-02-04T19:32:58;-0.20;99.90
66610;DHT22;53468;48.276;14.416;2023-02-04T19:38:22;-0.20;99.90
66610;DHT22;53468;48.276;14.416;2023-02-04T19:43:34;-0.30;99.90
66610;DHT22;53468;48.276;14.416;2023-02-04T19:48:38;-0.40;99.90
66610;DHT22;53468;48.276;14.416;2023-02-04T19:53:42;-0.40;99.90
66610;DHT22;53468;48.276;14.416;2023-02-04T19:58:46;-0.40;99.90
66610;DHT22;53468;48.276;14.416;2023-02-04T20:03:49;-0.50;99.90
66610;DHT22;53468;48.276;14.416;2023-02-04T20:08:59;-0.50;99.90
66610;DHT22;53468;48.276;14.416;2023-02-04T20:14:24;-0.60;99.90
66610;DHT22;53468;48.276;14.416;2023-02-04T20:19:32;-0.60;99.90
66610;DHT22;53468;48.276;14.416;2023-02-04T20:24:38;-0.70;99.90
66610;DHT22;53468;48.276;14.416;2023-02-04T20:29:41;-0.70;99.90
66610;DHT22;53468;48.276;14.416;2023-02-04T20:34:43;-0.70;99.90
66610;DHT22;53468;48.276;14.416;2023-02-04T20:39:46;-0.80;99.90
66610;DHT22;53468;48.276;14.416;2023-02-04T20:44:49;-0.70;99.90
66610;DHT22;53468;48.276;14.416;2023-02-04T20:49:52;-0.80;99.90
66610;DHT22;53468;48.276;14.416;2023-02-04T20:54:59;-0.80;99.90
66610;DHT22;53468;48.276;14.416;2023-02-04T21:00:11;-0.80;99.90
66610;DHT22;53468;48.276;14.416;2023-02-04T21:05:20;-0.80;99.90
66610;DHT22;53468;48.276;14.416;2023-02-04T21:10:25;-0.80;99.90
66610;DHT22;53468;48.276;14.416;2023-02-04T21:15:27;-0.80;99.90
66610;DHT22;53468;48.276;14.416;2023-02-04T21:20:30;-0.90;99.90
66610;DHT22;53468;48.276;14.416;2023-02-04T21:25:36;-0.90;99.90
66610;DHT22;53468;48.276;14.416;2023-02-04T21:30:38;-0.90;99.90
66610;DHT22;53468;48.276;14.416;2023-02-04T21:35:40;-1.00;99.90
66610;DHT22;53468;48.276;14.416;2023-02-04T21:40:44;-1.00;99.90
66610;DHT22;53468;48.276;14.416;2023-02-04T21:45:46;-1.00;99.90
66610;DHT22;53468;48.276;14.416;2023-02-04T21:50:49;-1.00;99.90
66610;DHT22;53468;48.276;14.416;2023-02-04T21:55:53;-1.10;99.90
66610;DHT22;53468;48.276;14.416;2023-02-04T22:00:55;-1.10;99.90
66610;DHT22;53468;48.276;14.416;2023-02-04T22:05:57;-1.10;99.90
66610;DHT22;53468;48.276;14.416;2023-02-04T22:11:00;-1.20;99.90
66610;DHT22;53468;48.276;14.416;2023-02-04T22:16:02;-1.20;99.90
66610;DHT22;53468;48.276;14.416;2023-02-04T22:21:05;-1.20;99.90
66610;DHT22;53468;48.276;14.416;2023-02-04T22:26:08;-1.20;99.90
66610;DHT22;53468;48.276;14.416;2023-02-04T22:31:10;-1.20;99.90
66610;DHT22;53468;48.276;14.416;2023-02-04T22:36:14;-1.20;99.90
66610;DHT22;53468;48.276;14.416;2023-02-04T22:41:17;-1.30;99.90
66610;DHT22;53468;48.276;14.416;2023-02-04T22:46:19;-1.20;99.90
66610;DHT22;53468;48.276;14.416;2023-02-04T22:51:22;-1.10;99.90
66610;DHT22;53468;48.276;14.416;2023-02-04T22:56:26;-1.20;99.90
66610;DHT22;53468;48.276;14.416;2023-02-04T23:01:28;-1.10;99.90
66610;DHT22;53468;48.276;14.416;2023-02-04T23:06:30;-1.00;99.90
66610;DHT22;53468;48.276;14.416;2023-02-04T23:11:35;-1.10;99.90
66610;DHT22;53468;48.276;14.416;2023-02-04T23:16:37;-1.10;99.90
66610;DHT22;53468;48.276;14.416;2023-02-04T23:21:39;-1.00;99.90
66610;DHT22;53468;48.276;14.416;2023-02-04T23:26:43;-1.00;99.90
66610;DHT22;53468;48.276;14.416;2023-02-04T23:31:45;-1.00;99.90
66610;DHT22;53468;48.276;14.416;2023-02-04T23:36:47;-1.00;99.90
66610;DHT22;53468;48.276;14.416;2023-02-04T23:41:52;-1.00;99.90
66610;DHT22;53468;48.276;14.416;2023-02-04T23:46:54;-1.00;99.90
66610;DHT22;53468;48.276;14.416;2023-02-04T23:51:56;-1.10;99.90
66610;DHT22;53468;48.276;14.416;2023-02-04T23:56:59;-1.10;99.90
